Terminal Aerodrome Forecast
Issued by NWS

Home | Current Version | Previous Version | Text Only | Print | Product List | Glossary On
Versions: 1 2 3 4 5 6 7 8 9 10 11 12 13 14 15 16
000
FTUS44 KEWX 260526
TAFSSF
TAF
KSSF 260526Z 2606/2706 VRB04KT P6SM FEW250
     FM261200 10004KT 5SM BR OVC025
     FM261500 14007KT 5SM BR VCSH OVC010
     FM270000 13005KT 4SM BR OVC007
     FM270500 12004KT 2SM BR OVC004=

USA.gov is the U.S. government's official web portal to all federal, state and local government web resources and services.